sensor_id;sensor_type;location;lat;lon;timestamp;P1;durP1;ratioP1;P2;durP2;ratioP2
8104;SDS011;4095;48.942;9.104;2024-01-30T00:01:38;13.87;;;9.00;;
8104;SDS011;4095;48.942;9.104;2024-01-30T00:04:03;12.70;;;8.63;;
8104;SDS011;4095;48.942;9.104;2024-01-30T00:06:29;13.93;;;9.67;;
8104;SDS011;4095;48.942;9.104;2024-01-30T00:08:54;13.73;;;9.00;;
8104;SDS011;4095;48.942;9.104;2024-01-30T00:11:20;15.00;;;9.77;;
8104;SDS011;4095;48.942;9.104;2024-01-30T00:13:46;14.17;;;9.43;;
8104;SDS011;4095;48.942;9.104;2024-01-30T00:16:21;13.97;;;9.53;;
8104;SDS011;4095;48.942;9.104;2024-01-30T00:18:47;12.93;;;9.50;;
8104;SDS011;4095;48.942;9.104;2024-01-30T00:21:13;15.57;;;9.97;;
8104;SDS011;4095;48.942;9.104;2024-01-30T00:23:39;13.53;;;9.43;;
8104;SDS011;4095;48.942;9.104;2024-01-30T00:26:04;13.73;;;9.33;;
8104;SDS011;4095;48.942;9.104;2024-01-30T00:28:30;17.50;;;9.87;;
8104;SDS011;4095;48.942;9.104;2024-01-30T00:30:56;13.70;;;9.97;;
8104;SDS011;4095;48.942;9.104;2024-01-30T00:33:21;14.90;;;10.17;;
8104;SDS011;4095;48.942;9.104;2024-01-30T00:35:47;14.40;;;10.27;;
8104;SDS011;4095;48.942;9.104;2024-01-30T00:38:12;14.40;;;10.57;;
8104;SDS011;4095;48.942;9.104;2024-01-30T00:40:38;13.00;;;9.43;;
8104;SDS011;4095;48.942;9.104;2024-01-30T00:43:03;13.63;;;9.83;;
8104;SDS011;4095;48.942;9.104;2024-01-30T00:45:29;13.10;;;8.67;;
8104;SDS011;4095;48.942;9.104;2024-01-30T00:47:54;13.87;;;9.87;;
8104;SDS011;4095;48.942;9.104;2024-01-30T00:50:20;13.70;;;9.70;;
8104;SDS011;4095;48.942;9.104;2024-01-30T00:52:46;13.80;;;9.90;;
8104;SDS011;4095;48.942;9.104;2024-01-30T00:55:12;14.77;;;9.63;;
8104;SDS011;4095;48.942;9.104;2024-01-30T00:57:39;17.17;;;10.33;;
8104;SDS011;4095;48.942;9.104;2024-01-30T01:00:05;15.47;;;10.37;;
8104;SDS011;4095;48.942;9.104;2024-01-30T01:02:33;14.20;;;9.47;;
8104;SDS011;4095;48.942;9.104;2024-01-30T01:05:04;14.43;;;10.77;;
8104;SDS011;4095;48.942;9.104;2024-01-30T01:07:30;16.63;;;10.47;;
8104;SDS011;4095;48.942;9.104;2024-01-30T01:09:55;20.07;;;9.90;;
8104;SDS011;4095;48.942;9.104;2024-01-30T01:12:21;11.93;;;9.10;;
8104;SDS011;4095;48.942;9.104;2024-01-30T01:14:46;15.40;;;10.40;;
8104;SDS011;4095;48.942;9.104;2024-01-30T01:17:12;14.17;;;9.97;;
8104;SDS011;4095;48.942;9.104;2024-01-30T01:19:37;14.40;;;9.50;;
8104;SDS011;4095;48.942;9.104;2024-01-30T01:22:03;14.47;;;9.53;;
8104;SDS011;4095;48.942;9.104;2024-01-30T01:24:30;13.90;;;9.60;;
8104;SDS011;4095;48.942;9.104;2024-01-30T01:26:57;12.77;;;9.23;;
8104;SDS011;4095;48.942;9.104;2024-01-30T01:29:23;12.57;;;9.07;;
8104;SDS011;4095;48.942;9.104;2024-01-30T01:31:53;17.83;;;9.30;;
8104;SDS011;4095;48.942;9.104;2024-01-30T01:34:20;11.33;;;8.97;;
8104;SDS011;4095;48.942;9.104;2024-01-30T01:36:46;13.87;;;9.10;;
8104;SDS011;4095;48.942;9.104;2024-01-30T01:39:11;13.43;;;9.40;;
8104;SDS011;4095;48.942;9.104;2024-01-30T01:41:37;13.27;;;9.53;;
8104;SDS011;4095;48.942;9.104;2024-01-30T01:44:03;13.73;;;9.13;;
8104;SDS011;4095;48.942;9.104;2024-01-30T01:46:29;12.23;;;9.17;;
8104;SDS011;4095;48.942;9.104;2024-01-30T01:48:57;13.37;;;9.67;;
8104;SDS011;4095;48.942;9.104;2024-01-30T01:51:23;12.47;;;8.33;;
8104;SDS011;4095;48.942;9.104;2024-01-30T01:53:51;12.70;;;9.17;;
8104;SDS011;4095;48.942;9.104;2024-01-30T01:56:16;12.60;;;8.93;;
8104;SDS011;4095;48.942;9.104;2024-01-30T01:58:42;11.80;;;8.50;;
8104;SDS011;4095;48.942;9.104;2024-01-30T02:01:09;12.90;;;9.53;;
8104;SDS011;4095;48.942;9.104;2024-01-30T02:03:37;13.03;;;9.23;;
8104;SDS011;4095;48.942;9.104;2024-01-30T02:06:03;11.40;;;9.07;;
8104;SDS011;4095;48.942;9.104;2024-01-30T02:08:29;11.90;;;9.03;;
8104;SDS011;4095;48.942;9.104;2024-01-30T02:10:54;14.80;;;9.07;;
8104;SDS011;4095;48.942;9.104;2024-01-30T02:13:21;11.87;;;8.73;;
8104;SDS011;4095;48.942;9.104;2024-01-30T02:15:50;14.93;;;9.07;;
8104;SDS011;4095;48.942;9.104;2024-01-30T02:18:16;12.03;;;8.07;;
8104;SDS011;4095;48.942;9.104;2024-01-30T02:20:42;12.67;;;8.63;;
8104;SDS011;4095;48.942;9.104;2024-01-30T02:23:09;10.93;;;8.67;;
8104;SDS011;4095;48.942;9.104;2024-01-30T02:25:39;13.63;;;8.73;;
8104;SDS011;4095;48.942;9.104;2024-01-30T02:28:12;13.33;;;8.80;;
8104;SDS011;4095;48.942;9.104;2024-01-30T02:30:38;11.87;;;8.20;;
8104;SDS011;4095;48.942;9.104;2024-01-30T02:33:05;13.03;;;9.00;;
8104;SDS011;4095;48.942;9.104;2024-01-30T02:35:30;12.93;;;8.90;;
8104;SDS011;4095;48.942;9.104;2024-01-30T02:37:56;14.33;;;9.27;;
8104;SDS011;4095;48.942;9.104;2024-01-30T02:40:21;12.30;;;8.97;;
8104;SDS011;4095;48.942;9.104;2024-01-30T02:42:47;12.93;;;9.00;;
8104;SDS011;4095;48.942;9.104;2024-01-30T02:45:13;12.23;;;9.37;;
8104;SDS011;4095;48.942;9.104;2024-01-30T02:47:38;13.60;;;8.97;;
8104;SDS011;4095;48.942;9.104;2024-01-30T02:50:05;13.87;;;8.80;;
8104;SDS011;4095;48.942;9.104;2024-01-30T02:52:30;12.33;;;9.30;;
8104;SDS011;4095;48.942;9.104;2024-01-30T02:54:56;12.93;;;9.20;;
8104;SDS011;4095;48.942;9.104;2024-01-30T02:57:21;14.27;;;8.90;;
8104;SDS011;4095;48.942;9.104;2024-01-30T02:59:47;14.70;;;9.57;;
8104;SDS011;4095;48.942;9.104;2024-01-30T03:02:12;11.97;;;9.07;;
8104;SDS011;4095;48.942;9.104;2024-01-30T03:04:40;14.93;;;10.47;;
8104;SDS011;4095;48.942;9.104;2024-01-30T03:07:06;20.33;;;11.07;;
8104;SDS011;4095;48.942;9.104;2024-01-30T03:09:32;19.37;;;12.20;;
8104;SDS011;4095;48.942;9.104;2024-01-30T03:11:57;16.00;;;9.97;;
8104;SDS011;4095;48.942;9.104;2024-01-30T03:14:23;17.47;;;11.70;;
8104;SDS011;4095;48.942;9.104;2024-01-30T03:16:48;18.73;;;11.33;;
8104;SDS011;4095;48.942;9.104;2024-01-30T03:19:14;21.90;;;13.07;;
8104;SDS011;4095;48.942;9.104;2024-01-30T03:21:39;18.97;;;11.80;;
8104;SDS011;4095;48.942;9.104;2024-01-30T03:24:05;15.80;;;11.00;;
8104;SDS011;4095;48.942;9.104;2024-01-30T03:26:30;15.80;;;10.87;;
8104;SDS011;4095;48.942;9.104;2024-01-30T03:28:56;14.40;;;10.63;;
8104;SDS011;4095;48.942;9.104;2024-01-30T03:31:21;14.83;;;10.00;;
8104;SDS011;4095;48.942;9.104;2024-01-30T03:33:47;12.70;;;9.87;;
8104;SDS011;4095;48.942;9.104;2024-01-30T03:36:12;11.40;;;8.93;;
8104;SDS011;4095;48.942;9.104;2024-01-30T03:38:40;13.07;;;9.73;;
8104;SDS011;4095;48.942;9.104;2024-01-30T03:41:07;12.00;;;9.83;;
8104;SDS011;4095;48.942;9.104;2024-01-30T03:43:34;14.70;;;9.63;;
8104;SDS011;4095;48.942;9.104;2024-01-30T03:46:00;14.80;;;9.57;;
8104;SDS011;4095;48.942;9.104;2024-01-30T03:48:26;15.53;;;8.93;;
8104;SDS011;4095;48.942;9.104;2024-01-30T03:50:52;13.30;;;9.43;;
8104;SDS011;4095;48.942;9.104;2024-01-30T03:53:17;13.00;;;9.43;;
8104;SDS011;4095;48.942;9.104;2024-01-30T03:55:43;17.60;;;9.87;;
8104;SDS011;4095;48.942;9.104;2024-01-30T03:58:08;12.53;;;9.67;;
8104;SDS011;4095;48.942;9.104;2024-01-30T04:00:34;15.83;;;9.70;;
8104;SDS011;4095;48.942;9.104;2024-01-30T04:03:00;14.03;;;9.87;;
8104;SDS011;4095;48.942;9.104;2024-01-30T04:05:25;14.43;;;9.77;;
8104;SDS011;4095;48.942;9.104;2024-01-30T04:07:51;13.73;;;9.20;;
8104;SDS011;4095;48.942;9.104;2024-01-30T04:10:16;11.43;;;9.10;;
8104;SDS011;4095;48.942;9.104;2024-01-30T04:12:42;12.87;;;8.93;;
8104;SDS011;4095;48.942;9.104;2024-01-30T04:15:08;12.90;;;9.03;;
8104;SDS011;4095;48.942;9.104;2024-01-30T04:17:33;12.13;;;8.37;;
8104;SDS011;4095;48.942;9.104;2024-01-30T04:19:59;12.93;;;9.57;;
8104;SDS011;4095;48.942;9.104;2024-01-30T04:22:24;15.00;;;9.07;;
8104;SDS011;4095;48.942;9.104;2024-01-30T04:24:50;11.50;;;8.80;;
8104;SDS011;4095;48.942;9.104;2024-01-30T04:27:15;13.50;;;8.60;;
8104;SDS011;4095;48.942;9.104;2024-01-30T04:29:41;14.03;;;8.90;;
8104;SDS011;4095;48.942;9.104;2024-01-30T04:32:06;13.50;;;9.03;;
8104;SDS011;4095;48.942;9.104;2024-01-30T04:34:32;13.00;;;9.00;;
8104;SDS011;4095;48.942;9.104;2024-01-30T04:36:58;12.40;;;9.27;;
8104;SDS011;4095;48.942;9.104;2024-01-30T04:39:23;14.07;;;9.37;;
8104;SDS011;4095;48.942;9.104;2024-01-30T04:41:49;11.67;;;8.87;;
8104;SDS011;4095;48.942;9.104;2024-01-30T04:44:14;13.23;;;9.37;;
8104;SDS011;4095;48.942;9.104;2024-01-30T04:46:40;10.83;;;8.83;;
8104;SDS011;4095;48.942;9.104;2024-01-30T04:49:05;13.63;;;9.33;;
8104;SDS011;4095;48.942;9.104;2024-01-30T04:51:32;11.00;;;8.47;;
8104;SDS011;4095;48.942;9.104;2024-01-30T04:53:58;12.03;;;9.87;;
8104;SDS011;4095;48.942;9.104;2024-01-30T04:56:24;13.53;;;9.67;;
8104;SDS011;4095;48.942;9.104;2024-01-30T04:58:49;14.70;;;10.00;;
8104;SDS011;4095;48.942;9.104;2024-01-30T05:01:15;14.83;;;11.60;;
8104;SDS011;4095;48.942;9.104;2024-01-30T05:03:41;16.87;;;11.57;;
8104;SDS011;4095;48.942;9.104;2024-01-30T05:06:07;13.73;;;11.27;;
8104;SDS011;4095;48.942;9.104;2024-01-30T05:08:32;14.90;;;10.47;;
8104;SDS011;4095;48.942;9.104;2024-01-30T05:11:00;12.73;;;10.73;;
8104;SDS011;4095;48.942;9.104;2024-01-30T05:13:26;14.97;;;9.93;;
8104;SDS011;4095;48.942;9.104;2024-01-30T05:15:52;15.30;;;11.03;;
8104;SDS011;4095;48.942;9.104;2024-01-30T05:18:17;14.17;;;10.33;;
8104;SDS011;4095;48.942;9.104;2024-01-30T05:20:43;16.43;;;11.03;;
8104;SDS011;4095;48.942;9.104;2024-01-30T05:23:08;15.73;;;11.30;;
8104;SDS011;4095;48.942;9.104;2024-01-30T05:25:34;13.53;;;10.20;;
8104;SDS011;4095;48.942;9.104;2024-01-30T05:27:59;13.83;;;10.23;;
8104;SDS011;4095;48.942;9.104;2024-01-30T05:30:25;13.50;;;10.30;;
8104;SDS011;4095;48.942;9.104;2024-01-30T05:32:50;14.53;;;11.07;;
8104;SDS011;4095;48.942;9.104;2024-01-30T05:35:16;14.60;;;9.90;;
8104;SDS011;4095;48.942;9.104;2024-01-30T05:37:41;15.57;;;10.67;;
8104;SDS011;4095;48.942;9.104;2024-01-30T05:40:07;14.50;;;10.07;;
8104;SDS011;4095;48.942;9.104;2024-01-30T05:42:33;11.87;;;9.37;;
8104;SDS011;4095;48.942;9.104;2024-01-30T05:44:58;13.17;;;9.57;;
8104;SDS011;4095;48.942;9.104;2024-01-30T05:47:24;12.83;;;9.40;;
8104;SDS011;4095;48.942;9.104;2024-01-30T05:49:49;12.87;;;10.13;;
8104;SDS011;4095;48.942;9.104;2024-01-30T05:52:15;12.60;;;10.27;;
8104;SDS011;4095;48.942;9.104;2024-01-30T05:54:41;16.37;;;9.83;;
8104;SDS011;4095;48.942;9.104;2024-01-30T05:57:06;14.07;;;9.97;;
8104;SDS011;4095;48.942;9.104;2024-01-30T05:59:32;12.47;;;9.47;;
8104;SDS011;4095;48.942;9.104;2024-01-30T06:01:57;15.47;;;10.23;;
8104;SDS011;4095;48.942;9.104;2024-01-30T06:04:23;13.20;;;9.67;;
8104;SDS011;4095;48.942;9.104;2024-01-30T06:06:48;16.70;;;12.03;;
8104;SDS011;4095;48.942;9.104;2024-01-30T06:09:14;14.27;;;10.57;;
8104;SDS011;4095;48.942;9.104;2024-01-30T06:11:39;16.10;;;11.60;;
8104;SDS011;4095;48.942;9.104;2024-01-30T06:14:05;13.90;;;10.20;;
8104;SDS011;4095;48.942;9.104;2024-01-30T06:16:30;13.47;;;9.97;;
8104;SDS011;4095;48.942;9.104;2024-01-30T06:18:56;16.47;;;11.27;;
8104;SDS011;4095;48.942;9.104;2024-01-30T06:21:22;11.83;;;9.50;;
8104;SDS011;4095;48.942;9.104;2024-01-30T06:23:48;13.83;;;9.57;;
8104;SDS011;4095;48.942;9.104;2024-01-30T06:26:14;15.33;;;10.53;;
8104;SDS011;4095;48.942;9.104;2024-01-30T06:28:39;14.30;;;9.77;;
8104;SDS011;4095;48.942;9.104;2024-01-30T06:31:05;15.73;;;9.97;;
8104;SDS011;4095;48.942;9.104;2024-01-30T06:33:30;16.03;;;10.33;;
8104;SDS011;4095;48.942;9.104;2024-01-30T06:35:56;14.47;;;10.40;;
8104;SDS011;4095;48.942;9.104;2024-01-30T06:38:21;12.53;;;9.60;;
8104;SDS011;4095;48.942;9.104;2024-01-30T06:40:47;14.03;;;10.30;;
8104;SDS011;4095;48.942;9.104;2024-01-30T06:43:12;11.33;;;9.67;;
8104;SDS011;4095;48.942;9.104;2024-01-30T06:45:38;15.70;;;10.60;;
8104;SDS011;4095;48.942;9.104;2024-01-30T06:48:04;14.13;;;10.97;;
8104;SDS011;4095;48.942;9.104;2024-01-30T06:50:29;13.60;;;9.90;;
8104;SDS011;4095;48.942;9.104;2024-01-30T06:52:55;14.53;;;10.03;;
8104;SDS011;4095;48.942;9.104;2024-01-30T06:55:20;13.43;;;10.20;;
8104;SDS011;4095;48.942;9.104;2024-01-30T06:57:46;15.67;;;10.87;;
8104;SDS011;4095;48.942;9.104;2024-01-30T07:00:12;12.47;;;10.17;;
8104;SDS011;4095;48.942;9.104;2024-01-30T07:02:38;14.47;;;10.60;;
8104;SDS011;4095;48.942;9.104;2024-01-30T07:05:04;14.57;;;9.87;;
8104;SDS011;4095;48.942;9.104;2024-01-30T07:07:29;14.97;;;10.53;;
8104;SDS011;4095;48.942;9.104;2024-01-30T07:09:55;13.97;;;10.10;;
8104;SDS011;4095;48.942;9.104;2024-01-30T07:12:22;13.83;;;9.07;;
8104;SDS011;4095;48.942;9.104;2024-01-30T07:14:51;14.20;;;10.07;;
8104;SDS011;4095;48.942;9.104;2024-01-30T07:17:17;13.00;;;9.53;;
8104;SDS011;4095;48.942;9.104;2024-01-30T07:19:42;12.70;;;9.60;;
8104;SDS011;4095;48.942;9.104;2024-01-30T07:22:08;11.60;;;9.73;;
8104;SDS011;4095;48.942;9.104;2024-01-30T07:24:34;13.50;;;9.57;;
8104;SDS011;4095;48.942;9.104;2024-01-30T07:26:59;12.10;;;9.53;;
8104;SDS011;4095;48.942;9.104;2024-01-30T07:29:25;14.43;;;9.80;;
8104;SDS011;4095;48.942;9.104;2024-01-30T07:31:51;11.57;;;9.07;;
8104;SDS011;4095;48.942;9.104;2024-01-30T07:34:16;15.93;;;10.50;;
8104;SDS011;4095;48.942;9.104;2024-01-30T07:36:42;14.53;;;9.40;;
8104;SDS011;4095;48.942;9.104;2024-01-30T07:39:07;12.43;;;9.97;;
8104;SDS011;4095;48.942;9.104;2024-01-30T07:41:33;13.90;;;10.30;;
8104;SDS011;4095;48.942;9.104;2024-01-30T07:43:58;12.97;;;9.50;;
8104;SDS011;4095;48.942;9.104;2024-01-30T07:46:24;14.70;;;10.27;;
8104;SDS011;4095;48.942;9.104;2024-01-30T07:48:50;12.90;;;10.07;;
8104;SDS011;4095;48.942;9.104;2024-01-30T07:51:15;13.13;;;10.33;;
8104;SDS011;4095;48.942;9.104;2024-01-30T07:53:41;15.60;;;10.00;;
8104;SDS011;4095;48.942;9.104;2024-01-30T07:56:06;14.03;;;10.20;;
8104;SDS011;4095;48.942;9.104;2024-01-30T07:58:32;13.07;;;10.37;;
8104;SDS011;4095;48.942;9.104;2024-01-30T08:00:58;13.70;;;10.17;;
8104;SDS011;4095;48.942;9.104;2024-01-30T08:03:25;14.07;;;11.83;;
8104;SDS011;4095;48.942;9.104;2024-01-30T08:05:51;16.17;;;12.07;;
8104;SDS011;4095;48.942;9.104;2024-01-30T08:08:16;16.07;;;12.03;;
8104;SDS011;4095;48.942;9.104;2024-01-30T08:10:42;19.80;;;13.90;;
8104;SDS011;4095;48.942;9.104;2024-01-30T08:13:07;16.83;;;13.67;;
8104;SDS011;4095;48.942;9.104;2024-01-30T08:15:34;15.97;;;12.57;;
8104;SDS011;4095;48.942;9.104;2024-01-30T08:17:59;14.77;;;11.07;;
8104;SDS011;4095;48.942;9.104;2024-01-30T08:20:25;12.40;;;10.83;;
8104;SDS011;4095;48.942;9.104;2024-01-30T08:22:51;16.73;;;12.47;;
8104;SDS011;4095;48.942;9.104;2024-01-30T08:25:16;17.77;;;11.77;;
8104;SDS011;4095;48.942;9.104;2024-01-30T08:27:42;14.13;;;10.83;;
8104;SDS011;4095;48.942;9.104;2024-01-30T08:30:08;15.03;;;11.27;;
8104;SDS011;4095;48.942;9.104;2024-01-30T08:32:33;15.10;;;11.10;;
8104;SDS011;4095;48.942;9.104;2024-01-30T08:34:59;16.07;;;11.20;;
8104;SDS011;4095;48.942;9.104;2024-01-30T08:37:28;14.87;;;11.03;;
8104;SDS011;4095;48.942;9.104;2024-01-30T08:39:54;16.03;;;11.00;;
8104;SDS011;4095;48.942;9.104;2024-01-30T08:42:20;17.60;;;11.63;;
8104;SDS011;4095;48.942;9.104;2024-01-30T08:44:47;14.93;;;11.00;;
8104;SDS011;4095;48.942;9.104;2024-01-30T08:47:14;14.17;;;11.27;;
8104;SDS011;4095;48.942;9.104;2024-01-30T08:49:41;14.90;;;10.83;;
8104;SDS011;4095;48.942;9.104;2024-01-30T08:52:09;14.40;;;10.23;;
8104;SDS011;4095;48.942;9.104;2024-01-30T08:54:35;13.37;;;10.07;;
8104;SDS011;4095;48.942;9.104;2024-01-30T08:57:00;18.23;;;12.30;;
8104;SDS011;4095;48.942;9.104;2024-01-30T08:59:27;14.33;;;11.03;;
8104;SDS011;4095;48.942;9.104;2024-01-30T09:01:52;15.63;;;11.97;;
8104;SDS011;4095;48.942;9.104;2024-01-30T09:04:20;15.53;;;11.70;;
8104;SDS011;4095;48.942;9.104;2024-01-30T09:06:46;16.97;;;11.87;;
8104;SDS011;4095;48.942;9.104;2024-01-30T09:09:12;14.60;;;11.30;;
8104;SDS011;4095;48.942;9.104;2024-01-30T09:11:37;14.13;;;11.00;;
8104;SDS011;4095;48.942;9.104;2024-01-30T09:14:03;18.20;;;12.70;;
8104;SDS011;4095;48.942;9.104;2024-01-30T09:16:29;15.70;;;12.10;;
8104;SDS011;4095;48.942;9.104;2024-01-30T09:18:54;19.50;;;11.63;;
8104;SDS011;4095;48.942;9.104;2024-01-30T09:21:20;13.30;;;11.43;;
8104;SDS011;4095;48.942;9.104;2024-01-30T09:23:45;16.90;;;11.10;;
8104;SDS011;4095;48.942;9.104;2024-01-30T09:26:11;16.63;;;11.67;;
8104;SDS011;4095;48.942;9.104;2024-01-30T09:28:37;14.33;;;11.23;;
8104;SDS011;4095;48.942;9.104;2024-01-30T09:31:03;14.97;;;11.43;;
8104;SDS011;4095;48.942;9.104;2024-01-30T09:33:29;15.63;;;11.90;;
8104;SDS011;4095;48.942;9.104;2024-01-30T09:35:54;16.60;;;11.27;;
8104;SDS011;4095;48.942;9.104;2024-01-30T09:38:20;13.43;;;10.60;;
8104;SDS011;4095;48.942;9.104;2024-01-30T09:40:46;16.03;;;10.83;;
8104;SDS011;4095;48.942;9.104;2024-01-30T09:43:18;13.70;;;11.40;;
8104;SDS011;4095;48.942;9.104;2024-01-30T09:45:48;14.97;;;11.00;;
8104;SDS011;4095;48.942;9.104;2024-01-30T09:48:15;14.70;;;10.60;;
8104;SDS011;4095;48.942;9.104;2024-01-30T09:50:40;15.03;;;11.37;;
8104;SDS011;4095;48.942;9.104;2024-01-30T09:53:06;17.90;;;12.70;;
8104;SDS011;4095;48.942;9.104;2024-01-30T09:55:34;15.57;;;12.00;;
8104;SDS011;4095;48.942;9.104;2024-01-30T09:58:01;16.60;;;12.87;;
8104;SDS011;4095;48.942;9.104;2024-01-30T10:00:26;14.13;;;11.83;;
8104;SDS011;4095;48.942;9.104;2024-01-30T10:02:52;17.20;;;11.77;;
8104;SDS011;4095;48.942;9.104;2024-01-30T10:05:19;15.70;;;12.10;;
8104;SDS011;4095;48.942;9.104;2024-01-30T10:07:54;17.53;;;11.87;;
8104;SDS011;4095;48.942;9.104;2024-01-30T10:10:22;16.63;;;11.80;;
8104;SDS011;4095;48.942;9.104;2024-01-30T10:12:48;17.03;;;12.03;;
8104;SDS011;4095;48.942;9.104;2024-01-30T10:15:14;18.57;;;13.30;;
8104;SDS011;4095;48.942;9.104;2024-01-30T10:17:40;17.23;;;13.07;;
8104;SDS011;4095;48.942;9.104;2024-01-30T10:20:06;16.67;;;11.57;;
8104;SDS011;4095;48.942;9.104;2024-01-30T10:22:32;15.80;;;11.77;;
8104;SDS011;4095;48.942;9.104;2024-01-30T10:24:58;14.20;;;11.80;;
8104;SDS011;4095;48.942;9.104;2024-01-30T10:27:26;15.67;;;11.93;;
8104;SDS011;4095;48.942;9.104;2024-01-30T10:29:52;14.03;;;11.93;;
8104;SDS011;4095;48.942;9.104;2024-01-30T10:32:18;15.73;;;11.80;;
8104;SDS011;4095;48.942;9.104;2024-01-30T10:34:44;12.27;;;11.00;;
8104;SDS011;4095;48.942;9.104;2024-01-30T10:37:10;13.77;;;11.40;;
8104;SDS011;4095;48.942;9.104;2024-01-30T10:39:45;15.53;;;11.63;;
8104;SDS011;4095;48.942;9.104;2024-01-30T10:42:15;14.40;;;11.17;;
8104;SDS011;4095;48.942;9.104;2024-01-30T10:44:52;13.83;;;11.07;;
8104;SDS011;4095;48.942;9.104;2024-01-30T10:47:36;16.60;;;11.33;;
8104;SDS011;4095;48.942;9.104;2024-01-30T10:50:02;15.77;;;11.60;;
8104;SDS011;4095;48.942;9.104;2024-01-30T10:52:28;16.27;;;10.60;;
8104;SDS011;4095;48.942;9.104;2024-01-30T10:54:55;15.53;;;10.93;;
8104;SDS011;4095;48.942;9.104;2024-01-30T10:57:23;16.77;;;11.13;;
8104;SDS011;4095;48.942;9.104;2024-01-30T10:59:52;14.43;;;10.27;;
8104;SDS011;4095;48.942;9.104;2024-01-30T11:02:21;13.67;;;10.83;;
8104;SDS011;4095;48.942;9.104;2024-01-30T11:04:48;14.30;;;10.97;;
8104;SDS011;4095;48.942;9.104;2024-01-30T11:07:15;12.93;;;10.40;;
8104;SDS011;4095;48.942;9.104;2024-01-30T11:09:48;14.47;;;10.27;;
8104;SDS011;4095;48.942;9.104;2024-01-30T11:12:14;14.00;;;10.83;;
8104;SDS011;4095;48.942;9.104;2024-01-30T11:14:40;12.63;;;9.67;;
8104;SDS011;4095;48.942;9.104;2024-01-30T11:17:05;14.70;;;10.70;;
8104;SDS011;4095;48.942;9.104;2024-01-30T11:19:31;15.53;;;10.70;;
8104;SDS011;4095;48.942;9.104;2024-01-30T11:21:58;14.87;;;10.33;;
8104;SDS011;4095;48.942;9.104;2024-01-30T11:24:25;12.40;;;9.97;;
8104;SDS011;4095;48.942;9.104;2024-01-30T11:26:57;12.43;;;10.33;;
8104;SDS011;4095;48.942;9.104;2024-01-30T11:29:27;15.27;;;11.10;;
8104;SDS011;4095;48.942;9.104;2024-01-30T11:31:53;12.97;;;10.43;;
8104;SDS011;4095;48.942;9.104;2024-01-30T11:34:20;14.63;;;11.07;;
8104;SDS011;4095;48.942;9.104;2024-01-30T11:36:48;12.97;;;10.10;;
8104;SDS011;4095;48.942;9.104;2024-01-30T11:39:20;13.33;;;9.70;;
8104;SDS011;4095;48.942;9.104;2024-01-30T11:41:46;13.67;;;10.67;;
8104;SDS011;4095;48.942;9.104;2024-01-30T11:44:15;13.13;;;9.93;;
8104;SDS011;4095;48.942;9.104;2024-01-30T11:46:41;13.13;;;10.47;;
8104;SDS011;4095;48.942;9.104;2024-01-30T11:49:06;13.27;;;10.03;;
8104;SDS011;4095;48.942;9.104;2024-01-30T11:51:32;14.13;;;10.70;;
8104;SDS011;4095;48.942;9.104;2024-01-30T11:53:58;14.83;;;11.07;;
8104;SDS011;4095;48.942;9.104;2024-01-30T11:56:23;13.93;;;10.80;;
8104;SDS011;4095;48.942;9.104;2024-01-30T11:58:50;13.83;;;10.63;;
8104;SDS011;4095;48.942;9.104;2024-01-30T12:01:17;14.07;;;11.50;;
8104;SDS011;4095;48.942;9.104;2024-01-30T12:03:43;13.97;;;10.67;;
8104;SDS011;4095;48.942;9.104;2024-01-30T12:06:15;14.73;;;10.43;;
8104;SDS011;4095;48.942;9.104;2024-01-30T12:08:41;13.23;;;10.60;;
8104;SDS011;4095;48.942;9.104;2024-01-30T12:11:07;13.47;;;10.90;;
8104;SDS011;4095;48.942;9.104;2024-01-30T12:13:32;12.30;;;10.90;;
8104;SDS011;4095;48.942;9.104;2024-01-30T12:15:58;12.30;;;10.77;;
8104;SDS011;4095;48.942;9.104;2024-01-30T12:18:24;14.93;;;12.47;;
8104;SDS011;4095;48.942;9.104;2024-01-30T12:20:56;14.17;;;11.53;;
8104;SDS011;4095;48.942;9.104;2024-01-30T12:23:24;15.33;;;11.53;;
8104;SDS011;4095;48.942;9.104;2024-01-30T12:25:50;13.13;;;10.83;;
8104;SDS011;4095;48.942;9.104;2024-01-30T12:28:16;14.87;;;10.90;;
8104;SDS011;4095;48.942;9.104;2024-01-30T12:30:42;13.07;;;10.23;;
8104;SDS011;4095;48.942;9.104;2024-01-30T12:33:08;16.20;;;11.53;;
8104;SDS011;4095;48.942;9.104;2024-01-30T12:35:35;12.23;;;10.77;;
8104;SDS011;4095;48.942;9.104;2024-01-30T12:38:00;13.03;;;11.60;;
8104;SDS011;4095;48.942;9.104;2024-01-30T12:40:27;15.10;;;10.90;;
8104;SDS011;4095;48.942;9.104;2024-01-30T12:42:53;13.50;;;10.97;;
8104;SDS011;4095;48.942;9.104;2024-01-30T12:45:19;14.43;;;11.30;;
8104;SDS011;4095;48.942;9.104;2024-01-30T12:47:46;11.67;;;10.20;;
8104;SDS011;4095;48.942;9.104;2024-01-30T12:50:12;12.33;;;10.13;;
8104;SDS011;4095;48.942;9.104;2024-01-30T12:52:40;13.43;;;10.53;;
8104;SDS011;4095;48.942;9.104;2024-01-30T12:55:06;12.20;;;9.97;;
8104;SDS011;4095;48.942;9.104;2024-01-30T12:57:32;12.93;;;10.00;;
8104;SDS011;4095;48.942;9.104;2024-01-30T12:59:57;11.80;;;10.60;;
8104;SDS011;4095;48.942;9.104;2024-01-30T13:02:23;12.60;;;10.43;;
8104;SDS011;4095;48.942;9.104;2024-01-30T13:04:49;15.03;;;10.70;;
8104;SDS011;4095;48.942;9.104;2024-01-30T13:07:14;12.80;;;10.23;;
8104;SDS011;4095;48.942;9.104;2024-01-30T13:09:40;13.43;;;10.50;;
8104;SDS011;4095;48.942;9.104;2024-01-30T13:12:05;20.47;;;11.33;;
8104;SDS011;4095;48.942;9.104;2024-01-30T13:14:31;13.40;;;10.03;;
8104;SDS011;4095;48.942;9.104;2024-01-30T13:16:57;12.23;;;9.83;;
8104;SDS011;4095;48.942;9.104;2024-01-30T13:19:23;14.30;;;9.43;;
8104;SDS011;4095;48.942;9.104;2024-01-30T13:21:48;12.03;;;9.90;;
8104;SDS011;4095;48.942;9.104;2024-01-30T13:24:14;15.03;;;10.13;;
8104;SDS011;4095;48.942;9.104;2024-01-30T13:26:40;10.80;;;9.67;;
8104;SDS011;4095;48.942;9.104;2024-01-30T13:29:07;12.57;;;10.27;;
8104;SDS011;4095;48.942;9.104;2024-01-30T13:31:33;13.17;;;10.30;;
8104;SDS011;4095;48.942;9.104;2024-01-30T13:33:59;12.90;;;10.47;;
8104;SDS011;4095;48.942;9.104;2024-01-30T13:36:25;13.90;;;10.20;;
8104;SDS011;4095;48.942;9.104;2024-01-30T13:38:51;13.93;;;10.73;;
8104;SDS011;4095;48.942;9.104;2024-01-30T13:41:16;13.10;;;10.43;;
8104;SDS011;4095;48.942;9.104;2024-01-30T13:43:43;13.33;;;10.10;;
8104;SDS011;4095;48.942;9.104;2024-01-30T13:46:09;12.70;;;10.13;;
8104;SDS011;4095;48.942;9.104;2024-01-30T13:48:35;13.37;;;11.00;;
8104;SDS011;4095;48.942;9.104;2024-01-30T13:51:00;13.37;;;10.70;;
8104;SDS011;4095;48.942;9.104;2024-01-30T13:53:26;11.57;;;10.20;;
8104;SDS011;4095;48.942;9.104;2024-01-30T13:55:52;13.30;;;10.43;;
8104;SDS011;4095;48.942;9.104;2024-01-30T13:58:18;13.20;;;10.17;;
8104;SDS011;4095;48.942;9.104;2024-01-30T14:00:43;13.23;;;10.27;;
8104;SDS011;4095;48.942;9.104;2024-01-30T14:03:09;14.20;;;10.50;;
8104;SDS011;4095;48.942;9.104;2024-01-30T14:05:34;14.23;;;10.50;;
8104;SDS011;4095;48.942;9.104;2024-01-30T14:08:00;12.53;;;10.50;;
8104;SDS011;4095;48.942;9.104;2024-01-30T14:10:26;13.30;;;11.00;;
8104;SDS011;4095;48.942;9.104;2024-01-30T14:12:51;12.77;;;10.50;;
8104;SDS011;4095;48.942;9.104;2024-01-30T14:15:17;14.53;;;11.37;;
8104;SDS011;4095;48.942;9.104;2024-01-30T14:17:43;15.97;;;10.87;;
8104;SDS011;4095;48.942;9.104;2024-01-30T14:20:10;14.83;;;11.23;;
8104;SDS011;4095;48.942;9.104;2024-01-30T14:22:36;14.90;;;10.63;;
8104;SDS011;4095;48.942;9.104;2024-01-30T14:25:01;12.40;;;10.53;;
8104;SDS011;4095;48.942;9.104;2024-01-30T14:27:28;13.37;;;9.60;;
8104;SDS011;4095;48.942;9.104;2024-01-30T14:29:55;13.83;;;10.63;;
8104;SDS011;4095;48.942;9.104;2024-01-30T14:32:21;13.53;;;11.07;;
8104;SDS011;4095;48.942;9.104;2024-01-30T14:34:48;14.33;;;10.63;;
8104;SDS011;4095;48.942;9.104;2024-01-30T14:37:14;15.77;;;11.27;;
8104;SDS011;4095;48.942;9.104;2024-01-30T14:39:39;15.10;;;11.07;;
8104;SDS011;4095;48.942;9.104;2024-01-30T14:42:06;12.40;;;10.83;;
8104;SDS011;4095;48.942;9.104;2024-01-30T14:44:32;13.23;;;10.37;;
8104;SDS011;4095;48.942;9.104;2024-01-30T14:46:58;13.70;;;10.60;;